Terminal Aerodrome Forecast
Issued by NWS St Louis, MO

Home | Current Version | Previous Version | Text Only | Print | Product List | Glossary On
Versions: 1 2 3 4 5 6 7 8 9 10 11 12 13 14 15 16
000
FTUS43 KLSX 212327
TAFCOU
TAF
KCOU 212327Z 2200/2224 08010KT P6SM SCT120 OVC200
     FM220300 08011KT P6SM OVC110
     FM220500 08010G16KT P6SM VCSH OVC070
     FM220800 07010G17KT 6SM -SHRA OVC050
     FM221400 07015G21KT P6SM OVC040=

USA.gov is the U.S. government's official web portal to all federal, state and local government web resources and services.